Terminal Aerodrome Forecast
Issued by NWS

Home | Current Version | Previous Version | Text Only | Print | Product List | Glossary On
Versions: 1 2 3 4 5 6 7 8 9 10 11 12 13 14 15 16 17 18
645
FTUS46 KSTO 231720
TAFSAC
TAF
KSAC 231720Z 2318/2418 21007KT P6SM BKN250
      TEMPO 2318/2320 5SM BR BKN003
     FM240300 19006KT P6SM OVC100
     FM241000 18007KT P6SM -RA OVC050
     FM241500 15007G15KT 5SM -RA OVC025=

USA.gov is the U.S. government's official web portal to all federal, state and local government web resources and services.